Globe, AZ

5:49 PM MST on March 02, 2015 (GMT -0700)
Falcon Field | Change Station
CLOSE
Current Station
Airport
Location: Mesa,
Elevation: 1391 ft
Nearby Weather Stations

Elev 1391 ft 33.46 °N, 111.73 °W | Updated 59 minutes ago

Rain
Rain
50 °F
Feels Like 50 °F
N
0
Wind Variable Wind from North

Today
High -- | Low -- °F
--% Chance of Precip.
Yesterday
High -- | Low -- °F
Precip. -- in
6:50 AM 6:20 PM
Waxing Gibbous, 93% visible
Pressure 29.97 in
Visibility 10.0 miles
Clouds Scattered Clouds 1000 ft
Mostly Cloudy 2500 ft
Overcast 4000 ft
Dew Point 50 °F
Humidity 100%
Rainfall 0.00 in
Snow Depth Not available.
UV 0 out of 12
Pollen 2.60 out of 12
Air Quality Not available.
Flu Activity Not available.
METAR KFFZ 022350Z 00000KT 10SM SCT010 BKN025 OVC040 10/10 A2997

More Conditions Fewer Conditions

Pressure 29.97 in
Visibility 10.0 miles
Clouds Scattered Clouds 1000 ft
Mostly Cloudy 2500 ft
Overcast 4000 ft
Dew Point 50 °F
Humidity 100%
Rainfall 0.00 in
Snow Depth Not available.
UV 0 out of 12
Pollen 2.60 out of 12
Air Quality Not available.
Flu Activity Not available.
METAR KFFZ 022350Z 00000KT 10SM SCT010 BKN025 OVC040 10/10 A2997

More Conditions Fewer Conditions

10-Day Weather Forecast

Almanac

Astronomy

Mar. 02, 2015 Rise Set
Actual Time
Civil Twilight
Nautical Twilight
Astronomical Twilight
Moon
Length of Visible Light
Length of Day
Tomorrow will be .
, % of the Moon is Illuminated

Today's Extremes

State Highs State Lows

Community

WunderPhotos

Upload Photos

1,802,009 photos uploaded!

WunderBlogs® & News

Nearby

Air Quality

  Air Quality AQ Index Pollutant
Not available.

Snow Depth

Station Depth Elevation

Earthquake Activity

City Distance Mag. Time & Date
Minimum magnitude displayed is 2.5.

Coastal Water Temperatures

Place Temperature

Nearby Weather Stations

Flood Watch / Flood Statement
Statement as of 4:13 PM MST on March 02, 2015

... Flood Watch for south central Arizona is cancelled...

The Flood Watch for portions of east-central Arizona and south-
central Arizona has been cancelled.

Rainfall amounts although significant in spots across the deserts...
foothills... and mountains of Maricopa and southern Gila counties
has not and will not be enough to produce significant wash flooding.

Although there will be some ponding of water and minor runoff in a
few washes it will not be significant enough to continue the Flood
Watch. Therefore the Flood Watch was cancelled at 410 PM.

Stay up-to-date on the latest forecasts by listening to weather radio
on the public service band. More detailed information is available
from the National Weather Service in Phoenix on the internet at

Weather.Gov/Phoenix